Schedule Details


Flight Number: CTN662
Departure: Franjo Tudman (LDZA) at 14:20
Arrival: Cilipi (LDDU) at 15:15
Route: TEBLI L187 EVTON Y128 TIKSA L607 NERRA

Weather Information
LDZA 151630Z 22002KT CAVOK 25/14 Q1022 NOSIG
LDDU 151630Z 29006KT CAVOK 24/15 Q1021 NOSIG
Schedule Frequency

Route Map